Αρχική σελίδα
METAR-TAF:

METAR-TAF

Αεροδρόμια :

Kake, Αλάσκα, Ηνωμένες Πολιτείες Αμερικής

γεωγραφικό πλάτος: 56-57N, γεωγραφικό μήκος: 133-54W, υψόμετρο: 52 μ

Παρών καιρός

Η αναφορά έγινε 47 λεπτά πριν, στις 11:56 UTC
Άνεμος 7 kt από Α
Θερμοκρασία 7°C
Υγρασία 70%
Πίεση 1010 hPa
Ορατότητα: 16.1 χλμ
Νεφοσκεπής σε ύψος 3300 πόδια

METAR: PAFE 101156Z AUTO 09007KT 10SM OVC033 07/02 A2982 RMK AO2 SLP111 T00720022 10072 20056 57008

Χρόνος: 03:43 (12:43 UTC)


TAF: λείπει

Μετεωρολογικές αναφορές και προγνώσεις για περισσότερα από 4000 αεροδρόμια (δελτία METAR και TAF).

Οι διαθέσιμοι σταθμοί απεικονίζονται στο χάρτη με κίτρινες και κόκκινες κουκκίδες.

Μετακινήστε το ποντίκι πάνω από τις κουκκίδες για να δείτε το όνομα του σταθμού.

Στη συνέχεια, κάντε κλικ για να δείτε τις μετεωρολογικές αναφορές και τις προγνώσεις καιρού.

Για να αλλάξετε το χάρτη: κάντε κλικ στα πράσινα κουμπιά με τον μαύρο σταυρό για να ζουμάρετε, στο πράσινο κουμπί με την παύλα για να αφαιρέσετε το ζουμ ή στα πράσινα βέλη για να αντιπαραβάλλετε χάρτες.


METAR-TAF: